sensor_id;sensor_type;location;lat;lon;timestamp;P1;durP1;ratioP1;P2;durP2;ratioP2
65154;SDS011;51741;52.344;-1.580;2022-08-03T00:02:02;0.55;;;0.50;;
65154;SDS011;51741;52.344;-1.580;2022-08-03T00:04:28;0.25;;;0.20;;
65154;SDS011;51741;52.344;-1.580;2022-08-03T00:06:54;0.30;;;0.30;;
65154;SDS011;51741;52.344;-1.580;2022-08-03T00:09:19;0.32;;;0.30;;
65154;SDS011;51741;52.344;-1.580;2022-08-03T00:11:45;0.30;;;0.30;;
65154;SDS011;51741;52.344;-1.580;2022-08-03T00:14:11;0.50;;;0.20;;
65154;SDS011;51741;52.344;-1.580;2022-08-03T00:16:36;0.95;;;0.30;;
65154;SDS011;51741;52.344;-1.580;2022-08-03T00:19:02;0.75;;;0.30;;
65154;SDS011;51741;52.344;-1.580;2022-08-03T00:21:28;0.85;;;0.40;;
65154;SDS011;51741;52.344;-1.580;2022-08-03T00:23:54;0.50;;;0.30;;
65154;SDS011;51741;52.344;-1.580;2022-08-03T00:26:20;0.40;;;0.30;;
65154;SDS011;51741;52.344;-1.580;2022-08-03T00:28:46;0.85;;;0.35;;
65154;SDS011;51741;52.344;-1.580;2022-08-03T00:31:12;0.30;;;0.30;;
65154;SDS011;51741;52.344;-1.580;2022-08-03T00:33:38;0.28;;;0.20;;
65154;SDS011;51741;52.344;-1.580;2022-08-03T00:36:04;0.82;;;0.40;;
65154;SDS011;51741;52.344;-1.580;2022-08-03T00:38:30;0.20;;;0.20;;
65154;SDS011;51741;52.344;-1.580;2022-08-03T00:40:55;1.17;;;0.20;;
65154;SDS011;51741;52.344;-1.580;2022-08-03T00:43:23;0.95;;;0.40;;
65154;SDS011;51741;52.344;-1.580;2022-08-03T00:45:50;1.80;;;0.50;;
65154;SDS011;51741;52.344;-1.580;2022-08-03T00:48:15;0.30;;;0.20;;
65154;SDS011;51741;52.344;-1.580;2022-08-03T00:50:42;1.30;;;0.50;;
65154;SDS011;51741;52.344;-1.580;2022-08-03T00:53:09;1.05;;;0.38;;
65154;SDS011;51741;52.344;-1.580;2022-08-03T00:55:39;1.30;;;0.40;;
65154;SDS011;51741;52.344;-1.580;2022-08-03T00:58:06;1.83;;;0.35;;
65154;SDS011;51741;52.344;-1.580;2022-08-03T01:00:33;1.17;;;0.40;;
65154;SDS011;51741;52.344;-1.580;2022-08-03T01:03:00;1.83;;;0.50;;
65154;SDS011;51741;52.344;-1.580;2022-08-03T01:05:27;1.45;;;0.40;;
65154;SDS011;51741;52.344;-1.580;2022-08-03T01:13:30;1.48;;;0.40;;
65154;SDS011;51741;52.344;-1.580;2022-08-03T01:21:42;1.15;;;0.60;;
65154;SDS011;51741;52.344;-1.580;2022-08-03T01:29:38;1.80;;;0.50;;
65154;SDS011;51741;52.344;-1.580;2022-08-03T01:32:19;1.30;;;0.60;;
65154;SDS011;51741;52.344;-1.580;2022-08-03T01:34:48;1.63;;;0.57;;
65154;SDS011;51741;52.344;-1.580;2022-08-03T01:37:21;0.63;;;0.43;;
65154;SDS011;51741;52.344;-1.580;2022-08-03T01:39:55;1.85;;;0.50;;
65154;SDS011;51741;52.344;-1.580;2022-08-03T01:42:24;2.03;;;0.60;;
65154;SDS011;51741;52.344;-1.580;2022-08-03T01:44:52;1.95;;;0.65;;
65154;SDS011;51741;52.344;-1.580;2022-08-03T01:47:21;1.45;;;0.57;;
65154;SDS011;51741;52.344;-1.580;2022-08-03T01:49:48;1.70;;;0.82;;
65154;SDS011;51741;52.344;-1.580;2022-08-03T01:52:16;1.02;;;0.50;;
65154;SDS011;51741;52.344;-1.580;2022-08-03T01:54:44;2.10;;;0.63;;
65154;SDS011;51741;52.344;-1.580;2022-08-03T01:57:13;1.45;;;0.50;;
65154;SDS011;51741;52.344;-1.580;2022-08-03T01:59:40;0.45;;;0.40;;
65154;SDS011;51741;52.344;-1.580;2022-08-03T02:02:08;1.23;;;0.50;;
65154;SDS011;51741;52.344;-1.580;2022-08-03T02:04:37;1.15;;;0.50;;
65154;SDS011;51741;52.344;-1.580;2022-08-03T02:07:06;1.67;;;0.50;;
65154;SDS011;51741;52.344;-1.580;2022-08-03T02:09:33;2.47;;;0.68;;
65154;SDS011;51741;52.344;-1.580;2022-08-03T02:12:03;1.13;;;0.50;;
65154;SDS011;51741;52.344;-1.580;2022-08-03T02:14:33;3.53;;;0.73;;
65154;SDS011;51741;52.344;-1.580;2022-08-03T02:16:59;0.50;;;0.40;;
65154;SDS011;51741;52.344;-1.580;2022-08-03T02:19:25;1.38;;;0.50;;
65154;SDS011;51741;52.344;-1.580;2022-08-03T02:21:52;1.58;;;0.77;;
65154;SDS011;51741;52.344;-1.580;2022-08-03T02:24:18;1.35;;;0.65;;
65154;SDS011;51741;52.344;-1.580;2022-08-03T02:26:44;0.65;;;0.45;;
65154;SDS011;51741;52.344;-1.580;2022-08-03T02:29:13;1.13;;;0.60;;
65154;SDS011;51741;52.344;-1.580;2022-08-03T02:31:42;2.42;;;0.63;;
65154;SDS011;51741;52.344;-1.580;2022-08-03T02:34:12;0.93;;;0.43;;
65154;SDS011;51741;52.344;-1.580;2022-08-03T02:36:40;1.15;;;0.57;;
65154;SDS011;51741;52.344;-1.580;2022-08-03T02:39:09;0.60;;;0.52;;
65154;SDS011;51741;52.344;-1.580;2022-08-03T02:41:40;2.40;;;0.60;;
65154;SDS011;51741;52.344;-1.580;2022-08-03T02:44:12;1.25;;;0.60;;
65154;SDS011;51741;52.344;-1.580;2022-08-03T02:46:40;0.60;;;0.60;;
65154;SDS011;51741;52.344;-1.580;2022-08-03T02:49:12;2.10;;;0.57;;
65154;SDS011;51741;52.344;-1.580;2022-08-03T02:51:40;1.77;;;0.47;;
65154;SDS011;51741;52.344;-1.580;2022-08-03T02:54:07;1.38;;;0.50;;
65154;SDS011;51741;52.344;-1.580;2022-08-03T02:56:34;1.02;;;0.70;;
65154;SDS011;51741;52.344;-1.580;2022-08-03T02:59:01;0.73;;;0.40;;
65154;SDS011;51741;52.344;-1.580;2022-08-03T03:01:29;2.13;;;0.52;;
65154;SDS011;51741;52.344;-1.580;2022-08-03T03:03:56;0.65;;;0.60;;
65154;SDS011;51741;52.344;-1.580;2022-08-03T03:06:25;0.47;;;0.30;;
65154;SDS011;51741;52.344;-1.580;2022-08-03T03:08:52;0.82;;;0.60;;
65154;SDS011;51741;52.344;-1.580;2022-08-03T03:11:20;0.98;;;0.63;;
65154;SDS011;51741;52.344;-1.580;2022-08-03T03:13:47;0.40;;;0.40;;
65154;SDS011;51741;52.344;-1.580;2022-08-03T03:16:15;0.63;;;0.50;;
65154;SDS011;51741;52.344;-1.580;2022-08-03T03:18:42;1.08;;;0.52;;
65154;SDS011;51741;52.344;-1.580;2022-08-03T03:21:09;1.35;;;0.60;;
65154;SDS011;51741;52.344;-1.580;2022-08-03T03:23:37;0.70;;;0.43;;
65154;SDS011;51741;52.344;-1.580;2022-08-03T03:26:04;0.82;;;0.50;;
65154;SDS011;51741;52.344;-1.580;2022-08-03T03:28:31;1.00;;;0.50;;
65154;SDS011;51741;52.344;-1.580;2022-08-03T03:30:57;0.90;;;0.50;;
65154;SDS011;51741;52.344;-1.580;2022-08-03T03:33:23;1.63;;;0.60;;
65154;SDS011;51741;52.344;-1.580;2022-08-03T03:35:49;0.55;;;0.40;;
65154;SDS011;51741;52.344;-1.580;2022-08-03T03:38:16;1.10;;;0.50;;
65154;SDS011;51741;52.344;-1.580;2022-08-03T03:40:42;0.63;;;0.50;;
65154;SDS011;51741;52.344;-1.580;2022-08-03T03:43:08;0.70;;;0.50;;
65154;SDS011;51741;52.344;-1.580;2022-08-03T03:45:35;0.73;;;0.47;;
65154;SDS011;51741;52.344;-1.580;2022-08-03T03:48:02;1.20;;;0.40;;
65154;SDS011;51741;52.344;-1.580;2022-08-03T03:50:29;0.55;;;0.45;;
65154;SDS011;51741;52.344;-1.580;2022-08-03T03:52:56;0.65;;;0.47;;
65154;SDS011;51741;52.344;-1.580;2022-08-03T03:55:22;0.85;;;0.43;;
65154;SDS011;51741;52.344;-1.580;2022-08-03T03:57:48;3.22;;;0.40;;
65154;SDS011;51741;52.344;-1.580;2022-08-03T04:00:14;0.30;;;0.30;;
65154;SDS011;51741;52.344;-1.580;2022-08-03T04:02:41;1.67;;;0.63;;
65154;SDS011;51741;52.344;-1.580;2022-08-03T04:05:08;0.93;;;0.40;;
65154;SDS011;51741;52.344;-1.580;2022-08-03T04:08:00;0.93;;;0.45;;
65154;SDS011;51741;52.344;-1.580;2022-08-03T04:13:54;0.32;;;0.32;;
65154;SDS011;51741;52.344;-1.580;2022-08-03T04:16:23;0.77;;;0.50;;
65154;SDS011;51741;52.344;-1.580;2022-08-03T04:18:52;0.32;;;0.30;;
65154;SDS011;51741;52.344;-1.580;2022-08-03T04:21:23;1.02;;;0.47;;
65154;SDS011;51741;52.344;-1.580;2022-08-03T04:23:50;0.45;;;0.45;;
65154;SDS011;51741;52.344;-1.580;2022-08-03T04:26:19;1.92;;;0.57;;
65154;SDS011;51741;52.344;-1.580;2022-08-03T04:28:46;0.98;;;0.60;;
65154;SDS011;51741;52.344;-1.580;2022-08-03T04:31:14;0.90;;;0.50;;
65154;SDS011;51741;52.344;-1.580;2022-08-03T04:33:42;1.55;;;0.50;;
65154;SDS011;51741;52.344;-1.580;2022-08-03T04:36:10;0.68;;;0.47;;
65154;SDS011;51741;52.344;-1.580;2022-08-03T04:38:46;1.67;;;0.50;;
65154;SDS011;51741;52.344;-1.580;2022-08-03T04:41:24;0.85;;;0.50;;
65154;SDS011;51741;52.344;-1.580;2022-08-03T04:43:53;1.65;;;0.50;;
65154;SDS011;51741;52.344;-1.580;2022-08-03T04:46:21;3.17;;;0.60;;
65154;SDS011;51741;52.344;-1.580;2022-08-03T04:48:50;0.68;;;0.47;;
65154;SDS011;51741;52.344;-1.580;2022-08-03T04:51:16;0.93;;;0.40;;
65154;SDS011;51741;52.344;-1.580;2022-08-03T04:53:42;1.60;;;0.52;;
65154;SDS011;51741;52.344;-1.580;2022-08-03T04:56:08;0.70;;;0.50;;
65154;SDS011;51741;52.344;-1.580;2022-08-03T04:58:34;1.05;;;0.50;;
65154;SDS011;51741;52.344;-1.580;2022-08-03T05:01:00;1.48;;;0.35;;
65154;SDS011;51741;52.344;-1.580;2022-08-03T05:03:26;1.40;;;0.35;;
65154;SDS011;51741;52.344;-1.580;2022-08-03T05:05:51;1.35;;;0.50;;
65154;SDS011;51741;52.344;-1.580;2022-08-03T05:08:18;0.85;;;0.50;;
65154;SDS011;51741;52.344;-1.580;2022-08-03T05:10:44;1.02;;;0.40;;
65154;SDS011;51741;52.344;-1.580;2022-08-03T05:13:11;1.15;;;0.50;;
65154;SDS011;51741;52.344;-1.580;2022-08-03T05:15:37;2.05;;;0.50;;
65154;SDS011;51741;52.344;-1.580;2022-08-03T05:18:04;1.50;;;0.55;;
65154;SDS011;51741;52.344;-1.580;2022-08-03T05:20:30;0.82;;;0.50;;
65154;SDS011;51741;52.344;-1.580;2022-08-03T05:22:56;1.02;;;0.43;;
65154;SDS011;51741;52.344;-1.580;2022-08-03T05:25:23;0.77;;;0.40;;
65154;SDS011;51741;52.344;-1.580;2022-08-03T05:27:49;1.65;;;0.47;;
65154;SDS011;51741;52.344;-1.580;2022-08-03T05:30:15;0.70;;;0.38;;
65154;SDS011;51741;52.344;-1.580;2022-08-03T05:32:40;0.73;;;0.50;;
65154;SDS011;51741;52.344;-1.580;2022-08-03T05:35:06;0.40;;;0.40;;
65154;SDS011;51741;52.344;-1.580;2022-08-03T05:37:32;0.95;;;0.50;;
65154;SDS011;51741;52.344;-1.580;2022-08-03T05:39:58;0.30;;;0.30;;
65154;SDS011;51741;52.344;-1.580;2022-08-03T05:42:23;0.82;;;0.50;;
65154;SDS011;51741;52.344;-1.580;2022-08-03T05:44:49;1.00;;;0.50;;
65154;SDS011;51741;52.344;-1.580;2022-08-03T05:47:15;1.00;;;0.55;;
65154;SDS011;51741;52.344;-1.580;2022-08-03T05:49:41;1.27;;;0.43;;
65154;SDS011;51741;52.344;-1.580;2022-08-03T05:52:06;0.85;;;0.40;;
65154;SDS011;51741;52.344;-1.580;2022-08-03T05:54:32;0.65;;;0.25;;
65154;SDS011;51741;52.344;-1.580;2022-08-03T05:56:58;0.45;;;0.35;;
65154;SDS011;51741;52.344;-1.580;2022-08-03T05:59:23;0.90;;;0.40;;
65154;SDS011;51741;52.344;-1.580;2022-08-03T06:01:50;0.40;;;0.30;;
65154;SDS011;51741;52.344;-1.580;2022-08-03T06:04:15;0.40;;;0.40;;
65154;SDS011;51741;52.344;-1.580;2022-08-03T06:06:41;0.50;;;0.43;;
65154;SDS011;51741;52.344;-1.580;2022-08-03T06:09:07;0.88;;;0.50;;
65154;SDS011;51741;52.344;-1.580;2022-08-03T06:11:34;0.90;;;0.45;;
65154;SDS011;51741;52.344;-1.580;2022-08-03T06:14:00;0.60;;;0.43;;
65154;SDS011;51741;52.344;-1.580;2022-08-03T06:16:27;1.23;;;0.30;;
65154;SDS011;51741;52.344;-1.580;2022-08-03T06:18:52;1.10;;;0.50;;
65154;SDS011;51741;52.344;-1.580;2022-08-03T06:21:18;2.25;;;0.47;;
65154;SDS011;51741;52.344;-1.580;2022-08-03T06:23:44;0.40;;;0.40;;
65154;SDS011;51741;52.344;-1.580;2022-08-03T06:26:10;1.60;;;0.40;;
65154;SDS011;51741;52.344;-1.580;2022-08-03T06:28:36;0.75;;;0.30;;
65154;SDS011;51741;52.344;-1.580;2022-08-03T06:31:01;0.85;;;0.30;;
65154;SDS011;51741;52.344;-1.580;2022-08-03T06:33:27;0.98;;;0.40;;
65154;SDS011;51741;52.344;-1.580;2022-08-03T06:35:53;0.38;;;0.30;;
65154;SDS011;51741;52.344;-1.580;2022-08-03T06:38:19;1.15;;;0.55;;
65154;SDS011;51741;52.344;-1.580;2022-08-03T06:40:45;1.10;;;0.40;;
65154;SDS011;51741;52.344;-1.580;2022-08-03T06:43:11;2.78;;;0.40;;
65154;SDS011;51741;52.344;-1.580;2022-08-03T06:45:39;1.60;;;0.50;;
65154;SDS011;51741;52.344;-1.580;2022-08-03T06:48:06;1.98;;;0.38;;
65154;SDS011;51741;52.344;-1.580;2022-08-03T06:50:34;0.88;;;0.40;;
65154;SDS011;51741;52.344;-1.580;2022-08-03T06:53:01;1.05;;;0.45;;
65154;SDS011;51741;52.344;-1.580;2022-08-03T06:55:27;0.55;;;0.47;;
65154;SDS011;51741;52.344;-1.580;2022-08-03T06:57:53;0.30;;;0.30;;
65154;SDS011;51741;52.344;-1.580;2022-08-03T07:00:19;0.55;;;0.30;;
65154;SDS011;51741;52.344;-1.580;2022-08-03T07:02:45;0.68;;;0.40;;
65154;SDS011;51741;52.344;-1.580;2022-08-03T07:05:12;0.35;;;0.20;;
65154;SDS011;51741;52.344;-1.580;2022-08-03T07:07:38;1.27;;;0.50;;
65154;SDS011;51741;52.344;-1.580;2022-08-03T07:10:04;0.40;;;0.30;;
65154;SDS011;51741;52.344;-1.580;2022-08-03T07:12:31;0.40;;;0.30;;
65154;SDS011;51741;52.344;-1.580;2022-08-03T07:14:58;1.55;;;0.30;;
65154;SDS011;51741;52.344;-1.580;2022-08-03T07:17:25;0.73;;;0.40;;
65154;SDS011;51741;52.344;-1.580;2022-08-03T07:19:51;2.65;;;0.82;;
65154;SDS011;51741;52.344;-1.580;2022-08-03T07:22:17;0.50;;;0.50;;
65154;SDS011;51741;52.344;-1.580;2022-08-03T07:24:43;0.52;;;0.38;;
65154;SDS011;51741;52.344;-1.580;2022-08-03T07:27:09;1.50;;;0.50;;
65154;SDS011;51741;52.344;-1.580;2022-08-03T07:29:35;1.13;;;0.45;;
65154;SDS011;51741;52.344;-1.580;2022-08-03T07:32:02;0.95;;;0.45;;
65154;SDS011;51741;52.344;-1.580;2022-08-03T07:34:28;0.82;;;0.40;;
65154;SDS011;51741;52.344;-1.580;2022-08-03T07:36:54;2.08;;;0.50;;
65154;SDS011;51741;52.344;-1.580;2022-08-03T07:39:20;0.73;;;0.40;;
65154;SDS011;51741;52.344;-1.580;2022-08-03T07:41:46;0.32;;;0.30;;
65154;SDS011;51741;52.344;-1.580;2022-08-03T07:44:14;0.88;;;0.38;;
65154;SDS011;51741;52.344;-1.580;2022-08-03T07:46:39;0.65;;;0.50;;
65154;SDS011;51741;52.344;-1.580;2022-08-03T07:49:05;0.68;;;0.50;;
65154;SDS011;51741;52.344;-1.580;2022-08-03T07:51:31;1.75;;;0.40;;
65154;SDS011;51741;52.344;-1.580;2022-08-03T07:53:56;0.32;;;0.30;;
65154;SDS011;51741;52.344;-1.580;2022-08-03T07:56:23;1.63;;;0.38;;
65154;SDS011;51741;52.344;-1.580;2022-08-03T07:58:52;1.23;;;0.50;;
65154;SDS011;51741;52.344;-1.580;2022-08-03T08:01:21;3.63;;;0.55;;
65154;SDS011;51741;52.344;-1.580;2022-08-03T08:03:50;0.65;;;0.40;;
65154;SDS011;51741;52.344;-1.580;2022-08-03T08:06:16;0.35;;;0.22;;
65154;SDS011;51741;52.344;-1.580;2022-08-03T08:08:42;0.50;;;0.32;;
65154;SDS011;51741;52.344;-1.580;2022-08-03T08:11:11;0.60;;;0.30;;
65154;SDS011;51741;52.344;-1.580;2022-08-03T08:13:36;1.15;;;0.40;;
65154;SDS011;51741;52.344;-1.580;2022-08-03T08:16:02;1.52;;;0.40;;
65154;SDS011;51741;52.344;-1.580;2022-08-03T08:18:29;1.58;;;0.50;;
65154;SDS011;51741;52.344;-1.580;2022-08-03T08:20:55;0.82;;;0.30;;
65154;SDS011;51741;52.344;-1.580;2022-08-03T08:23:21;5.22;;;0.60;;
65154;SDS011;51741;52.344;-1.580;2022-08-03T08:26:13;5.22;;;0.43;;
65154;SDS011;51741;52.344;-1.580;2022-08-03T08:28:39;0.70;;;0.25;;
65154;SDS011;51741;52.344;-1.580;2022-08-03T08:31:05;2.15;;;0.50;;
65154;SDS011;51741;52.344;-1.580;2022-08-03T08:33:31;0.77;;;0.40;;
65154;SDS011;51741;52.344;-1.580;2022-08-03T08:35:58;6.50;;;0.60;;
65154;SDS011;51741;52.344;-1.580;2022-08-03T08:38:24;2.40;;;0.38;;
65154;SDS011;51741;52.344;-1.580;2022-08-03T08:40:50;1.20;;;0.38;;
65154;SDS011;51741;52.344;-1.580;2022-08-03T08:43:22;2.40;;;0.43;;
65154;SDS011;51741;52.344;-1.580;2022-08-03T08:45:48;3.60;;;0.60;;
65154;SDS011;51741;52.344;-1.580;2022-08-03T08:48:16;0.30;;;0.20;;
65154;SDS011;51741;52.344;-1.580;2022-08-03T08:50:46;0.80;;;0.40;;
65154;SDS011;51741;52.344;-1.580;2022-08-03T08:53:16;1.02;;;0.35;;
65154;SDS011;51741;52.344;-1.580;2022-08-03T08:55:46;0.45;;;0.40;;
65154;SDS011;51741;52.344;-1.580;2022-08-03T08:58:14;2.25;;;0.50;;
65154;SDS011;51741;52.344;-1.580;2022-08-03T09:00:43;4.97;;;0.60;;
65154;SDS011;51741;52.344;-1.580;2022-08-03T09:03:10;3.72;;;0.50;;
65154;SDS011;51741;52.344;-1.580;2022-08-03T09:05:45;5.50;;;0.60;;
65154;SDS011;51741;52.344;-1.580;2022-08-03T09:08:12;0.50;;;0.30;;
65154;SDS011;51741;52.344;-1.580;2022-08-03T09:10:38;3.00;;;0.50;;
65154;SDS011;51741;52.344;-1.580;2022-08-03T09:13:15;1.05;;;0.40;;
65154;SDS011;51741;52.344;-1.580;2022-08-03T09:19:34;2.30;;;0.40;;
65154;SDS011;51741;52.344;-1.580;2022-08-03T09:22:16;1.48;;;0.40;;
65154;SDS011;51741;52.344;-1.580;2022-08-03T09:24:59;2.58;;;0.40;;
65154;SDS011;51741;52.344;-1.580;2022-08-03T09:27:40;1.23;;;0.55;;
65154;SDS011;51741;52.344;-1.580;2022-08-03T09:30:17;2.30;;;0.60;;
65154;SDS011;51741;52.344;-1.580;2022-08-03T09:32:46;4.45;;;0.68;;
65154;SDS011;51741;52.344;-1.580;2022-08-03T09:35:12;2.78;;;0.43;;
65154;SDS011;51741;52.344;-1.580;2022-08-03T09:37:38;0.40;;;0.40;;
65154;SDS011;51741;52.344;-1.580;2022-08-03T09:40:07;1.10;;;0.52;;
65154;SDS011;51741;52.344;-1.580;2022-08-03T09:42:33;1.55;;;0.60;;
65154;SDS011;51741;52.344;-1.580;2022-08-03T09:45:04;0.95;;;0.55;;
65154;SDS011;51741;52.344;-1.580;2022-08-03T09:47:34;2.17;;;0.50;;
65154;SDS011;51741;52.344;-1.580;2022-08-03T09:50:07;1.55;;;0.40;;
65154;SDS011;51741;52.344;-1.580;2022-08-03T09:52:37;1.75;;;0.40;;
65154;SDS011;51741;52.344;-1.580;2022-08-03T09:55:08;6.68;;;0.50;;
65154;SDS011;51741;52.344;-1.580;2022-08-03T09:57:47;2.83;;;0.55;;
65154;SDS011;51741;52.344;-1.580;2022-08-03T10:00:13;2.45;;;0.40;;
65154;SDS011;51741;52.344;-1.580;2022-08-03T10:02:43;1.58;;;0.40;;
65154;SDS011;51741;52.344;-1.580;2022-08-03T10:05:12;0.30;;;0.30;;
65154;SDS011;51741;52.344;-1.580;2022-08-03T10:07:42;1.35;;;0.40;;
65154;SDS011;51741;52.344;-1.580;2022-08-03T10:10:09;3.47;;;0.50;;
65154;SDS011;51741;52.344;-1.580;2022-08-03T10:12:35;2.38;;;0.43;;
65154;SDS011;51741;52.344;-1.580;2022-08-03T10:15:02;1.13;;;0.52;;
65154;SDS011;51741;52.344;-1.580;2022-08-03T10:17:32;2.25;;;0.50;;
65154;SDS011;51741;52.344;-1.580;2022-08-03T10:19:58;1.38;;;0.68;;
65154;SDS011;51741;52.344;-1.580;2022-08-03T10:22:28;24.35;;;1.40;;
65154;SDS011;51741;52.344;-1.580;2022-08-03T10:27:28;9.98;;;0.88;;
65154;SDS011;51741;52.344;-1.580;2022-08-03T10:29:59;10.85;;;0.70;;
65154;SDS011;51741;52.344;-1.580;2022-08-03T10:35:07;8.00;;;0.68;;
65154;SDS011;51741;52.344;-1.580;2022-08-03T10:37:39;7.20;;;0.80;;
65154;SDS011;51741;52.344;-1.580;2022-08-03T10:40:08;6.00;;;0.60;;
65154;SDS011;51741;52.344;-1.580;2022-08-03T10:42:39;25.98;;;3.30;;
65154;SDS011;51741;52.344;-1.580;2022-08-03T10:45:25;21.10;;;2.95;;
65154;SDS011;51741;52.344;-1.580;2022-08-03T10:47:55;26.05;;;3.58;;
65154;SDS011;51741;52.344;-1.580;2022-08-03T10:50:22;24.40;;;2.95;;
65154;SDS011;51741;52.344;-1.580;2022-08-03T10:52:52;18.73;;;2.13;;
65154;SDS011;51741;52.344;-1.580;2022-08-03T10:55:36;17.88;;;1.88;;
65154;SDS011;51741;52.344;-1.580;2022-08-03T11:01:03;11.02;;;1.80;;
65154;SDS011;51741;52.344;-1.580;2022-08-03T11:03:30;7.30;;;1.48;;
65154;SDS011;51741;52.344;-1.580;2022-08-03T11:06:30;10.70;;;1.25;;
65154;SDS011;51741;52.344;-1.580;2022-08-03T11:14:07;7.90;;;0.93;;
65154;SDS011;51741;52.344;-1.580;2022-08-03T11:17:21;5.25;;;0.88;;
65154;SDS011;51741;52.344;-1.580;2022-08-03T11:19:51;5.82;;;0.85;;
65154;SDS011;51741;52.344;-1.580;2022-08-03T11:22:18;7.50;;;0.57;;
65154;SDS011;51741;52.344;-1.580;2022-08-03T11:35:13;2.28;;;0.70;;
65154;SDS011;51741;52.344;-1.580;2022-08-03T11:45:58;2.30;;;0.50;;
65154;SDS011;51741;52.344;-1.580;2022-08-03T11:48:41;2.70;;;0.60;;
65154;SDS011;51741;52.344;-1.580;2022-08-03T11:51:17;1.05;;;0.60;;
65154;SDS011;51741;52.344;-1.580;2022-08-03T11:53:55;2.40;;;0.77;;
65154;SDS011;51741;52.344;-1.580;2022-08-03T11:56:22;2.88;;;0.45;;
65154;SDS011;51741;52.344;-1.580;2022-08-03T11:58:49;2.15;;;0.47;;
65154;SDS011;51741;52.344;-1.580;2022-08-03T12:01:17;0.80;;;0.50;;
65154;SDS011;51741;52.344;-1.580;2022-08-03T12:03:44;1.90;;;0.45;;
65154;SDS011;51741;52.344;-1.580;2022-08-03T12:06:13;1.05;;;0.88;;
65154;SDS011;51741;52.344;-1.580;2022-08-03T12:08:40;2.00;;;0.60;;
65154;SDS011;51741;52.344;-1.580;2022-08-03T12:11:07;1.85;;;0.77;;
65154;SDS011;51741;52.344;-1.580;2022-08-03T12:13:36;1.10;;;0.70;;
65154;SDS011;51741;52.344;-1.580;2022-08-03T12:16:03;2.08;;;0.70;;
65154;SDS011;51741;52.344;-1.580;2022-08-03T12:18:29;1.48;;;0.73;;
65154;SDS011;51741;52.344;-1.580;2022-08-03T12:21:04;0.50;;;0.50;;
65154;SDS011;51741;52.344;-1.580;2022-08-03T12:23:33;1.00;;;0.73;;
65154;SDS011;51741;52.344;-1.580;2022-08-03T12:26:03;2.00;;;0.70;;
65154;SDS011;51741;52.344;-1.580;2022-08-03T12:28:30;1.85;;;0.80;;
65154;SDS011;51741;52.344;-1.580;2022-08-03T12:30:59;2.72;;;0.70;;
65154;SDS011;51741;52.344;-1.580;2022-08-03T12:33:27;2.42;;;0.80;;
65154;SDS011;51741;52.344;-1.580;2022-08-03T12:36:06;4.07;;;0.90;;
65154;SDS011;51741;52.344;-1.580;2022-08-03T12:38:33;3.08;;;0.98;;
65154;SDS011;51741;52.344;-1.580;2022-08-03T12:41:02;4.05;;;1.05;;
65154;SDS011;51741;52.344;-1.580;2022-08-03T12:43:33;0.80;;;0.80;;
65154;SDS011;51741;52.344;-1.580;2022-08-03T12:46:13;4.82;;;1.20;;
65154;SDS011;51741;52.344;-1.580;2022-08-03T12:51:31;1.58;;;0.90;;
65154;SDS011;51741;52.344;-1.580;2022-08-03T12:53:59;4.50;;;1.00;;
65154;SDS011;51741;52.344;-1.580;2022-08-03T12:56:25;1.38;;;0.90;;
65154;SDS011;51741;52.344;-1.580;2022-08-03T12:58:51;1.38;;;0.95;;
65154;SDS011;51741;52.344;-1.580;2022-08-03T13:01:17;0.80;;;0.80;;
65154;SDS011;51741;52.344;-1.580;2022-08-03T13:03:46;3.35;;;1.42;;
65154;SDS011;51741;52.344;-1.580;2022-08-03T13:06:14;1.13;;;0.93;;
65154;SDS011;51741;52.344;-1.580;2022-08-03T13:08:40;1.50;;;1.10;;
65154;SDS011;51741;52.344;-1.580;2022-08-03T13:11:20;2.08;;;1.20;;
65154;SDS011;51741;52.344;-1.580;2022-08-03T13:13:46;2.10;;;1.17;;
65154;SDS011;51741;52.344;-1.580;2022-08-03T13:16:13;1.63;;;1.08;;
65154;SDS011;51741;52.344;-1.580;2022-08-03T13:18:38;1.73;;;1.20;;
65154;SDS011;51741;52.344;-1.580;2022-08-03T13:21:04;1.52;;;1.00;;
65154;SDS011;51741;52.344;-1.580;2022-08-03T13:23:30;2.38;;;1.00;;
65154;SDS011;51741;52.344;-1.580;2022-08-03T13:25:56;1.40;;;1.20;;
65154;SDS011;51741;52.344;-1.580;2022-08-03T13:28:22;2.65;;;1.05;;
65154;SDS011;51741;52.344;-1.580;2022-08-03T13:30:47;1.63;;;1.20;;
65154;SDS011;51741;52.344;-1.580;2022-08-03T13:33:13;3.47;;;1.45;;
65154;SDS011;51741;52.344;-1.580;2022-08-03T13:35:39;3.10;;;1.33;;
65154;SDS011;51741;52.344;-1.580;2022-08-03T13:38:04;3.63;;;1.25;;
65154;SDS011;51741;52.344;-1.580;2022-08-03T13:40:30;5.88;;;1.30;;
65154;SDS011;51741;52.344;-1.580;2022-08-03T13:42:57;2.70;;;1.17;;
65154;SDS011;51741;52.344;-1.580;2022-08-03T13:45:22;2.63;;;1.30;;
65154;SDS011;51741;52.344;-1.580;2022-08-03T13:47:48;2.45;;;1.13;;
65154;SDS011;51741;52.344;-1.580;2022-08-03T13:50:14;2.58;;;1.13;;
65154;SDS011;51741;52.344;-1.580;2022-08-03T13:52:40;6.03;;;1.55;;
65154;SDS011;51741;52.344;-1.580;2022-08-03T13:55:06;7.95;;;1.50;;
65154;SDS011;51741;52.344;-1.580;2022-08-03T13:57:33;2.30;;;1.50;;
65154;SDS011;51741;52.344;-1.580;2022-08-03T13:59:59;10.40;;;1.42;;
65154;SDS011;51741;52.344;-1.580;2022-08-03T14:02:26;4.70;;;1.10;;
65154;SDS011;51741;52.344;-1.580;2022-08-03T14:04:52;4.88;;;1.48;;
65154;SDS011;51741;52.344;-1.580;2022-08-03T14:07:18;2.50;;;1.27;;
65154;SDS011;51741;52.344;-1.580;2022-08-03T14:09:44;4.97;;;1.13;;
65154;SDS011;51741;52.344;-1.580;2022-08-03T14:12:10;2.05;;;1.13;;
65154;SDS011;51741;52.344;-1.580;2022-08-03T14:14:36;3.03;;;1.13;;
65154;SDS011;51741;52.344;-1.580;2022-08-03T14:17:02;3.78;;;1.15;;
65154;SDS011;51741;52.344;-1.580;2022-08-03T14:19:28;4.35;;;1.08;;
65154;SDS011;51741;52.344;-1.580;2022-08-03T14:21:53;4.30;;;1.20;;
65154;SDS011;51741;52.344;-1.580;2022-08-03T14:24:19;3.42;;;1.00;;
65154;SDS011;51741;52.344;-1.580;2022-08-03T14:26:46;3.22;;;1.17;;
65154;SDS011;51741;52.344;-1.580;2022-08-03T14:29:11;4.88;;;1.20;;
65154;SDS011;51741;52.344;-1.580;2022-08-03T14:31:37;2.35;;;1.10;;
65154;SDS011;51741;52.344;-1.580;2022-08-03T14:34:03;6.72;;;0.93;;
65154;SDS011;51741;52.344;-1.580;2022-08-03T14:36:29;2.35;;;1.00;;
65154;SDS011;51741;52.344;-1.580;2022-08-03T14:38:55;4.63;;;1.15;;
65154;SDS011;51741;52.344;-1.580;2022-08-03T14:41:21;1.65;;;1.00;;
65154;SDS011;51741;52.344;-1.580;2022-08-03T14:43:46;2.25;;;1.10;;
65154;SDS011;51741;52.344;-1.580;2022-08-03T14:46:13;1.67;;;0.73;;
65154;SDS011;51741;52.344;-1.580;2022-08-03T14:48:39;5.78;;;1.10;;
65154;SDS011;51741;52.344;-1.580;2022-08-03T14:51:04;3.03;;;0.88;;
65154;SDS011;51741;52.344;-1.580;2022-08-03T14:53:30;3.92;;;1.08;;
65154;SDS011;51741;52.344;-1.580;2022-08-03T14:55:57;10.93;;;1.35;;
65154;SDS011;51741;52.344;-1.580;2022-08-03T14:58:23;8.15;;;1.30;;
65154;SDS011;51741;52.344;-1.580;2022-08-03T15:00:51;14.00;;;1.52;;
65154;SDS011;51741;52.344;-1.580;2022-08-03T15:03:18;8.10;;;1.20;;
65154;SDS011;51741;52.344;-1.580;2022-08-03T15:05:47;7.30;;;1.48;;
65154;SDS011;51741;52.344;-1.580;2022-08-03T15:08:14;6.22;;;1.00;;
65154;SDS011;51741;52.344;-1.580;2022-08-03T15:10:40;5.88;;;1.20;;
65154;SDS011;51741;52.344;-1.580;2022-08-03T15:13:05;6.55;;;1.15;;
65154;SDS011;51741;52.344;-1.580;2022-08-03T15:15:31;4.28;;;1.08;;
65154;SDS011;51741;52.344;-1.580;2022-08-03T15:17:57;6.15;;;1.10;;
65154;SDS011;51741;52.344;-1.580;2022-08-03T15:20:23;7.60;;;1.38;;
65154;SDS011;51741;52.344;-1.580;2022-08-03T15:22:48;7.97;;;1.35;;
65154;SDS011;51741;52.344;-1.580;2022-08-03T15:25:14;6.50;;;1.10;;
65154;SDS011;51741;52.344;-1.580;2022-08-03T15:27:40;3.42;;;1.23;;
65154;SDS011;51741;52.344;-1.580;2022-08-03T15:30:06;4.97;;;0.88;;
65154;SDS011;51741;52.344;-1.580;2022-08-03T15:32:34;2.35;;;1.10;;
65154;SDS011;51741;52.344;-1.580;2022-08-03T15:35:00;2.20;;;1.10;;
65154;SDS011;51741;52.344;-1.580;2022-08-03T15:37:26;4.03;;;0.95;;